createdAt,value
2019-02-22T00:03:48.359Z,9.80
2019-02-22T00:08:54.093Z,9.78
2019-02-22T00:14:03.610Z,9.85
2019-02-22T00:19:08.763Z,9.87
2019-02-22T00:24:14.498Z,9.88
2019-02-22T00:29:26.204Z,9.93
2019-02-22T00:34:34.202Z,9.97
2019-02-22T00:39:42.882Z,9.96
2019-02-22T00:44:54.413Z,9.87
2019-02-22T00:50:00.035Z,9.96
2019-02-22T00:55:08.157Z,9.97
2019-02-22T01:00:14.241Z,9.84
2019-02-22T01:05:19.949Z,9.86
2019-02-22T01:10:31.100Z,9.88
2019-02-22T01:15:32.969Z,9.83
2019-02-22T01:20:39.395Z,9.88
2019-02-22T01:25:44.946Z,9.92
2019-02-22T01:30:50.058Z,9.90
2019-02-22T01:35:55.223Z,9.85
2019-02-22T01:41:03.053Z,9.84
2019-02-22T01:46:08.553Z,9.87
2019-02-22T01:51:13.639Z,9.85
2019-02-22T01:56:18.775Z,9.94
2019-02-22T02:01:25.608Z,9.97
2019-02-22T02:06:31.423Z,9.97
2019-02-22T02:11:37.575Z,9.93
2019-02-22T02:16:42.736Z,9.96
2019-02-22T02:21:47.793Z,9.95
2019-02-22T02:26:52.849Z,9.94
2019-02-22T02:31:58.175Z,9.98
2019-02-22T02:37:03.185Z,9.94
2019-02-22T02:42:08.222Z,9.96
2019-02-22T02:47:13.225Z,9.98
2019-02-22T02:52:18.265Z,9.98
2019-02-22T02:57:24.193Z,10.01
2019-02-22T03:02:31.067Z,9.99
2019-02-22T03:07:43.467Z,9.92
2019-02-22T03:12:48.787Z,9.93
2019-02-22T03:17:53.807Z,9.90
2019-02-22T03:22:59.238Z,9.88
2019-02-22T03:28:04.692Z,9.92
2019-02-22T03:33:19.786Z,9.92
2019-02-22T03:38:25.052Z,9.87
2019-02-22T03:43:30.088Z,9.89
2019-02-22T03:48:35.047Z,9.82
2019-02-22T03:54:00.983Z,9.81
2019-02-22T03:59:06.507Z,9.79
2019-02-22T04:04:11.588Z,9.82
2019-02-22T04:09:17.109Z,9.79
2019-02-22T04:14:30.460Z,9.76
2019-02-22T04:19:35.448Z,9.69
2019-02-22T04:24:40.831Z,9.67
2019-02-22T04:29:45.886Z,9.56
2019-02-22T04:34:51.041Z,9.53
2019-02-22T04:39:57.242Z,9.48
2019-02-22T04:45:02.267Z,9.46
2019-02-22T04:50:08.656Z,9.41
2019-02-22T04:55:14.523Z,9.39
2019-02-22T05:00:19.540Z,9.40
2019-02-22T05:05:24.750Z,9.38
2019-02-22T05:10:30.012Z,9.33
2019-02-22T05:15:35.102Z,9.30
2019-02-22T05:20:40.939Z,9.27
2019-02-22T05:25:46.095Z,9.34
2019-02-22T05:30:51.227Z,9.26
2019-02-22T05:35:56.638Z,9.22
2019-02-22T05:41:01.756Z,9.24
2019-02-22T05:46:06.881Z,9.25
2019-02-22T05:51:13.689Z,9.24
2019-02-22T05:56:18.839Z,9.24
2019-02-22T06:01:24.031Z,9.23
2019-02-22T06:06:35.599Z,9.21
2019-02-22T06:11:40.960Z,9.20
2019-02-22T06:16:46.103Z,9.22
2019-02-22T06:21:51.389Z,9.23
2019-02-22T06:26:57.375Z,9.26
2019-02-22T06:32:03.051Z,9.19
2019-02-22T06:37:08.595Z,9.15
2019-02-22T06:42:13.640Z,9.14
2019-02-22T06:47:18.645Z,9.15
2019-02-22T06:52:25.445Z,9.14
2019-02-22T06:57:30.587Z,9.22
2019-02-22T07:02:36.284Z,9.20
2019-02-22T07:07:42.493Z,9.14
2019-02-22T07:12:56.997Z,9.18
2019-02-22T07:18:02.709Z,9.19
2019-02-22T07:23:08.943Z,9.19
2019-02-22T07:28:15.498Z,9.20
2019-02-22T07:33:31.917Z,9.22
2019-02-22T07:38:37.048Z,9.22
2019-02-22T07:43:43.727Z,9.25
2019-02-22T07:48:49.079Z,9.23
2019-02-22T07:53:54.461Z,9.30
2019-02-22T07:59:03.111Z,9.30
2019-02-22T08:04:08.501Z,9.26
2019-02-22T08:09:24.188Z,9.25
2019-02-22T08:14:29.471Z,9.11
2019-02-22T08:19:34.865Z,9.11
2019-02-22T08:24:43.479Z,9.06
2019-02-22T08:29:49.433Z,9.11
2019-02-22T08:34:56.533Z,8.98
2019-02-22T08:40:02.995Z,8.91
2019-02-22T08:45:24.292Z,8.78
2019-02-22T08:50:32.301Z,8.72
2019-02-22T08:55:39.210Z,8.64
2019-02-22T09:00:50.151Z,8.46
2019-02-22T09:06:08.171Z,8.34
2019-02-22T09:11:13.702Z,8.32
2019-02-22T09:16:19.535Z,8.17
2019-02-22T09:21:29.436Z,7.96
2019-02-22T09:26:38.848Z,7.94
2019-02-22T09:31:52.978Z,7.98
2019-02-22T09:36:59.651Z,8.05
2019-02-22T09:42:04.786Z,8.13
2019-02-22T09:47:11.808Z,8.06
2019-02-22T09:52:17.551Z,8.17
2019-02-22T09:57:24.386Z,8.22
2019-02-22T10:02:30.249Z,8.27
2019-02-22T10:07:35.693Z,8.30
2019-02-22T10:12:40.841Z,8.27
2019-02-22T10:17:46.349Z,8.27
2019-02-22T10:22:51.784Z,8.20
2019-02-22T10:28:18.091Z,8.10
2019-02-22T10:33:24.481Z,8.05
2019-02-22T10:38:36.142Z,7.88
2019-02-22T10:43:44.301Z,7.89
2019-02-22T10:48:51.990Z,7.76
2019-02-22T10:53:57.957Z,7.60
2019-02-22T10:59:03.118Z,7.51
2019-02-22T11:04:08.236Z,7.43
2019-02-22T11:09:14.738Z,7.43
2019-02-22T11:14:28.930Z,7.34
2019-02-22T11:19:29.168Z,7.23
2019-02-22T11:24:34.273Z,7.28
2019-02-22T11:29:39.808Z,7.18
2019-02-22T11:34:45.470Z,7.23
2019-02-22T11:39:50.886Z,7.18
2019-02-22T11:44:58.301Z,7.06
2019-02-22T11:50:04.486Z,7.05
2019-02-22T11:55:15.458Z,7.00
2019-02-22T12:00:22.268Z,6.90
2019-02-22T12:05:27.536Z,6.86
2019-02-22T12:10:33.332Z,6.85
2019-02-22T12:15:39.009Z,6.82
2019-02-22T12:20:44.112Z,6.79
2019-02-22T12:25:49.390Z,6.74
2019-02-22T12:30:54.421Z,6.62
2019-02-22T12:36:00.139Z,6.69
2019-02-22T12:41:05.577Z,6.48
2019-02-22T12:46:11.254Z,6.45
2019-02-22T12:51:16.371Z,6.44
2019-02-22T12:56:48.575Z,6.25
2019-02-22T13:01:30.076Z,6.37
2019-02-22T13:06:35.571Z,6.28
2019-02-22T13:11:40.736Z,6.33
2019-02-22T13:16:46.132Z,6.35
2019-02-22T13:21:51.368Z,6.28
2019-02-22T13:26:56.474Z,6.13
2019-02-22T13:32:02.920Z,6.18
2019-02-22T13:37:08.293Z,6.00
2019-02-22T13:42:13.380Z,6.07
2019-02-22T13:47:18.941Z,5.94
2019-02-22T13:52:25.802Z,5.92
2019-02-22T13:57:32.025Z,5.98
2019-02-22T14:02:37.825Z,6.01
2019-02-22T14:07:55.710Z,5.96
2019-02-22T14:13:01.887Z,5.97
2019-02-22T14:18:07.292Z,6.04
2019-02-22T14:23:13.996Z,5.76
2019-02-22T14:28:21.617Z,5.66
2019-02-22T14:33:26.794Z,5.45
2019-02-22T14:38:32.322Z,5.44
2019-02-22T14:43:37.535Z,5.44
2019-02-22T14:48:42.762Z,5.37
2019-02-22T14:53:47.824Z,5.36
2019-02-22T14:58:52.881Z,5.34
2019-02-22T15:03:57.977Z,5.41
2019-02-22T15:09:04.772Z,5.34
2019-02-22T15:14:18.120Z,5.35
2019-02-22T15:19:23.671Z,5.41
2019-02-22T15:24:37.362Z,5.45
2019-02-22T15:29:45.860Z,5.43
2019-02-22T15:34:51.218Z,5.43
2019-02-22T15:39:56.515Z,5.46
2019-02-22T15:45:04.663Z,5.35
2019-02-22T15:50:13.491Z,5.47
2019-02-22T15:55:18.887Z,5.34
2019-02-22T16:00:25.837Z,5.17
2019-02-22T16:05:33.976Z,5.25
2019-02-22T16:10:39.191Z,5.28
2019-02-22T16:15:44.781Z,5.16
2019-02-22T16:20:50.243Z,5.12
2019-02-22T16:25:55.344Z,5.14
2019-02-22T16:31:00.486Z,5.08
2019-02-22T16:36:05.614Z,5.04
2019-02-22T16:41:10.906Z,4.90
2019-02-22T16:46:16.633Z,4.80
2019-02-22T16:51:21.932Z,4.86
2019-02-22T16:56:27.112Z,4.88
2019-02-22T17:01:33.123Z,4.90
2019-02-22T17:06:55.779Z,4.84
2019-02-22T17:12:06.422Z,4.75
2019-02-22T17:17:08.500Z,4.66
2019-02-22T17:22:13.882Z,4.64
2019-02-22T17:27:20.204Z,4.65
2019-02-22T17:32:25.576Z,4.63
2019-02-22T17:37:30.754Z,4.64
2019-02-22T17:42:36.942Z,4.69
2019-02-22T17:47:44.958Z,4.58
2019-02-22T17:52:50.932Z,4.53
2019-02-22T17:57:57.042Z,4.52
2019-02-22T18:03:05.649Z,4.53
2019-02-22T18:08:11.907Z,4.52
2019-02-22T18:13:17.279Z,4.53
2019-02-22T18:18:23.391Z,4.49
2019-02-22T18:23:29.087Z,4.40
2019-02-22T18:28:36.036Z,4.39
2019-02-22T18:33:41.651Z,4.38
2019-02-22T18:38:47.792Z,4.31
2019-02-22T18:43:53.034Z,4.25
2019-02-22T18:48:58.860Z,4.28
2019-02-22T18:54:04.028Z,4.35
2019-02-22T18:59:10.341Z,4.26
2019-02-22T19:04:15.532Z,4.13
2019-02-22T19:09:20.984Z,4.04
2019-02-22T19:14:26.272Z,4.02
2019-02-22T19:19:31.848Z,3.99
2019-02-22T19:24:40.366Z,3.98
2019-02-22T19:29:45.822Z,3.88
2019-02-22T19:34:53.731Z,3.87
2019-02-22T19:39:59.291Z,3.84
2019-02-22T19:45:05.575Z,3.78
2019-02-22T19:50:12.643Z,3.75
2019-02-22T19:55:22.227Z,3.73
2019-02-22T20:00:28.003Z,3.69
2019-02-22T20:05:33.532Z,3.70
2019-02-22T20:10:40.964Z,3.73
2019-02-22T20:15:46.993Z,3.71
2019-02-22T20:20:52.952Z,3.72
2019-02-22T20:26:17.748Z,3.81
2019-02-22T20:31:23.866Z,3.78
2019-02-22T20:36:29.167Z,3.81
2019-02-22T20:41:34.436Z,3.79
2019-02-22T20:46:44.270Z,3.79
2019-02-22T20:51:49.996Z,3.69
2019-02-22T20:57:29.185Z,3.65
2019-02-22T21:02:34.511Z,3.65
2019-02-22T21:07:39.615Z,3.47
2019-02-22T21:12:44.770Z,3.45
2019-02-22T21:17:50.492Z,3.50
2019-02-22T21:22:55.908Z,3.53
2019-02-22T21:28:01.103Z,3.53
2019-02-22T21:33:10.936Z,3.49
2019-02-22T21:38:22.441Z,3.49
2019-02-22T21:43:29.651Z,3.43
2019-02-22T21:48:34.945Z,3.29
2019-02-22T21:53:40.928Z,3.20
2019-02-22T21:58:48.611Z,3.12
2019-02-22T22:03:54.048Z,3.09
2019-02-22T22:08:59.700Z,3.04
2019-02-22T22:14:07.546Z,3.06
2019-02-22T22:19:14.270Z,3.04
2019-02-22T22:24:19.884Z,2.91
2019-02-22T22:29:25.179Z,2.86
2019-02-22T22:34:30.836Z,2.84
2019-02-22T22:39:36.414Z,2.85
2019-02-22T22:44:42.061Z,2.81
2019-02-22T22:49:48.008Z,2.77
2019-02-22T22:54:54.094Z,2.76
2019-02-22T22:59:59.766Z,2.72
2019-02-22T23:05:05.056Z,2.61
2019-02-22T23:10:12.444Z,2.58
2019-02-22T23:15:17.714Z,2.55
2019-02-22T23:20:23.434Z,2.53
2019-02-22T23:25:28.686Z,2.39
2019-02-22T23:30:34.865Z,2.32
2019-02-22T23:35:40.078Z,2.32
2019-02-22T23:40:45.217Z,2.37
2019-02-22T23:45:50.399Z,2.37
2019-02-22T23:51:01.085Z,2.35
2019-02-22T23:56:10.931Z,2.29
